RJAO(METAR)
06/25 09:00
METAR RJAO 250000Z 23009KT 9999 FEW020 SCT250 29/26 Q1017 RMK 1CU020
A3003 SEA 0.3M=
戻る
トップページへ戻る
IMOC Co,.Ltd.